sensor_id;sensor_type;location;lat;lon;timestamp;temperature;humidity
62555;DHT22;48610;52.144;8.624;2023-03-23T00:00:54;12.20;99.90
62555;DHT22;48610;52.144;8.624;2023-03-23T00:03:55;12.10;99.90
62555;DHT22;48610;52.144;8.624;2023-03-23T00:06:58;12.20;99.90
62555;DHT22;48610;52.144;8.624;2023-03-23T00:10:03;12.00;99.90
62555;DHT22;48610;52.144;8.624;2023-03-23T00:13:03;12.00;99.90
62555;DHT22;48610;52.144;8.624;2023-03-23T00:16:05;11.90;99.90
62555;DHT22;48610;52.144;8.624;2023-03-23T00:19:08;11.70;99.90
62555;DHT22;48610;52.144;8.624;2023-03-23T00:22:09;11.70;99.90
62555;DHT22;48610;52.144;8.624;2023-03-23T00:25:09;11.50;99.90
62555;DHT22;48610;52.144;8.624;2023-03-23T00:28:10;11.50;99.90
62555;DHT22;48610;52.144;8.624;2023-03-23T00:31:13;11.60;99.90
62555;DHT22;48610;52.144;8.624;2023-03-23T00:34:16;11.50;99.90
62555;DHT22;48610;52.144;8.624;2023-03-23T00:37:20;11.50;99.90
62555;DHT22;48610;52.144;8.624;2023-03-23T00:40:21;11.60;99.90
62555;DHT22;48610;52.144;8.624;2023-03-23T00:43:22;11.70;99.90
62555;DHT22;48610;52.144;8.624;2023-03-23T00:46:25;11.70;99.90
62555;DHT22;48610;52.144;8.624;2023-03-23T00:49:26;11.70;99.90
62555;DHT22;48610;52.144;8.624;2023-03-23T00:52:27;11.70;99.90
62555;DHT22;48610;52.144;8.624;2023-03-23T00:55:27;11.70;99.90
62555;DHT22;48610;52.144;8.624;2023-03-23T00:58:28;11.80;99.90
62555;DHT22;48610;52.144;8.624;2023-03-23T01:01:29;11.50;99.90
62555;DHT22;48610;52.144;8.624;2023-03-23T01:04:30;11.60;99.90
62555;DHT22;48610;52.144;8.624;2023-03-23T01:07:32;11.70;99.90
62555;DHT22;48610;52.144;8.624;2023-03-23T01:10:33;11.70;99.90
62555;DHT22;48610;52.144;8.624;2023-03-23T01:13:34;11.80;99.90
62555;DHT22;48610;52.144;8.624;2023-03-23T01:16:34;11.60;99.90
62555;DHT22;48610;52.144;8.624;2023-03-23T01:19:35;11.60;99.90
62555;DHT22;48610;52.144;8.624;2023-03-23T01:22:39;11.70;99.90
62555;DHT22;48610;52.144;8.624;2023-03-23T01:25:39;11.70;99.90
62555;DHT22;48610;52.144;8.624;2023-03-23T01:28:41;11.70;99.90
62555;DHT22;48610;52.144;8.624;2023-03-23T01:31:41;11.80;99.90
62555;DHT22;48610;52.144;8.624;2023-03-23T01:34:43;11.80;99.90
62555;DHT22;48610;52.144;8.624;2023-03-23T01:37:43;11.80;99.90
62555;DHT22;48610;52.144;8.624;2023-03-23T01:40:44;11.80;99.90
62555;DHT22;48610;52.144;8.624;2023-03-23T01:47:07;11.90;99.90
62555;DHT22;48610;52.144;8.624;2023-03-23T01:50:08;11.80;99.90
62555;DHT22;48610;52.144;8.624;2023-03-23T01:53:09;11.90;99.90
62555;DHT22;48610;52.144;8.624;2023-03-23T01:56:13;12.00;99.90
62555;DHT22;48610;52.144;8.624;2023-03-23T01:59:14;12.00;99.90
62555;DHT22;48610;52.144;8.624;2023-03-23T02:02:16;12.00;99.90
62555;DHT22;48610;52.144;8.624;2023-03-23T02:05:43;11.90;99.90
62555;DHT22;48610;52.144;8.624;2023-03-23T02:08:45;12.00;99.90
62555;DHT22;48610;52.144;8.624;2023-03-23T02:11:49;11.90;99.90
62555;DHT22;48610;52.144;8.624;2023-03-23T02:14:52;12.00;99.90
62555;DHT22;48610;52.144;8.624;2023-03-23T02:18:17;12.00;99.90
62555;DHT22;48610;52.144;8.624;2023-03-23T02:32:07;12.10;99.90
62555;DHT22;48610;52.144;8.624;2023-03-23T02:35:18;12.10;99.90
62555;DHT22;48610;52.144;8.624;2023-03-23T02:38:25;12.30;99.90
62555;DHT22;48610;52.144;8.624;2023-03-23T02:41:31;12.10;99.90
62555;DHT22;48610;52.144;8.624;2023-03-23T02:44:38;12.10;99.90
62555;DHT22;48610;52.144;8.624;2023-03-23T02:47:40;11.90;99.90
62555;DHT22;48610;52.144;8.624;2023-03-23T02:50:45;12.00;99.90
62555;DHT22;48610;52.144;8.624;2023-03-23T02:53:46;12.00;99.90
62555;DHT22;48610;52.144;8.624;2023-03-23T02:56:50;12.00;99.90
62555;DHT22;48610;52.144;8.624;2023-03-23T02:59:51;12.00;99.90
62555;DHT22;48610;52.144;8.624;2023-03-23T03:02:53;12.00;99.90
62555;DHT22;48610;52.144;8.624;2023-03-23T03:12:51;12.10;99.90
62555;DHT22;48610;52.144;8.624;2023-03-23T03:15:59;12.10;99.90
62555;DHT22;48610;52.144;8.624;2023-03-23T03:19:08;12.10;99.90
62555;DHT22;48610;52.144;8.624;2023-03-23T03:22:12;12.10;99.90
62555;DHT22;48610;52.144;8.624;2023-03-23T03:25:14;12.10;99.90
62555;DHT22;48610;52.144;8.624;2023-03-23T03:28:20;12.10;99.90
62555;DHT22;48610;52.144;8.624;2023-03-23T03:31:27;12.00;99.90
62555;DHT22;48610;52.144;8.624;2023-03-23T03:34:29;12.00;99.90
62555;DHT22;48610;52.144;8.624;2023-03-23T03:37:36;12.10;99.90
62555;DHT22;48610;52.144;8.624;2023-03-23T03:40:37;12.00;99.90
62555;DHT22;48610;52.144;8.624;2023-03-23T03:43:38;12.00;99.90
62555;DHT22;48610;52.144;8.624;2023-03-23T03:46:39;11.90;99.90
62555;DHT22;48610;52.144;8.624;2023-03-23T03:49:39;11.90;99.90
62555;DHT22;48610;52.144;8.624;2023-03-23T03:52:40;11.90;99.90
62555;DHT22;48610;52.144;8.624;2023-03-23T03:55:41;11.80;99.90
62555;DHT22;48610;52.144;8.624;2023-03-23T03:58:45;11.90;99.90
62555;DHT22;48610;52.144;8.624;2023-03-23T04:01:48;11.90;99.90
62555;DHT22;48610;52.144;8.624;2023-03-23T04:04:54;11.90;99.90
62555;DHT22;48610;52.144;8.624;2023-03-23T04:07:55;12.00;99.90
62555;DHT22;48610;52.144;8.624;2023-03-23T04:11:01;11.90;99.90
62555;DHT22;48610;52.144;8.624;2023-03-23T04:14:02;11.90;99.90
62555;DHT22;48610;52.144;8.624;2023-03-23T04:17:02;11.80;99.90
62555;DHT22;48610;52.144;8.624;2023-03-23T04:20:04;11.80;99.90
62555;DHT22;48610;52.144;8.624;2023-03-23T04:23:14;11.80;99.90
62555;DHT22;48610;52.144;8.624;2023-03-23T04:26:15;11.80;99.90
62555;DHT22;48610;52.144;8.624;2023-03-23T04:29:16;11.80;99.90
62555;DHT22;48610;52.144;8.624;2023-03-23T04:32:16;11.90;99.90
62555;DHT22;48610;52.144;8.624;2023-03-23T04:35:21;11.90;99.90
62555;DHT22;48610;52.144;8.624;2023-03-23T04:38:23;11.90;99.90
62555;DHT22;48610;52.144;8.624;2023-03-23T04:41:24;12.00;99.90
62555;DHT22;48610;52.144;8.624;2023-03-23T04:44:25;12.00;99.90
62555;DHT22;48610;52.144;8.624;2023-03-23T04:47:27;12.00;99.90
62555;DHT22;48610;52.144;8.624;2023-03-23T04:50:31;12.00;99.90
62555;DHT22;48610;52.144;8.624;2023-03-23T04:53:32;11.90;99.90
62555;DHT22;48610;52.144;8.624;2023-03-23T04:56:33;11.90;99.90
62555;DHT22;48610;52.144;8.624;2023-03-23T04:59:34;11.90;99.90
62555;DHT22;48610;52.144;8.624;2023-03-23T05:02:36;11.90;99.90
62555;DHT22;48610;52.144;8.624;2023-03-23T05:05:36;11.90;99.90
62555;DHT22;48610;52.144;8.624;2023-03-23T05:08:37;11.90;99.90
62555;DHT22;48610;52.144;8.624;2023-03-23T05:11:41;12.00;99.90
62555;DHT22;48610;52.144;8.624;2023-03-23T05:14:42;12.00;99.90
62555;DHT22;48610;52.144;8.624;2023-03-23T05:17:43;12.00;99.90
62555;DHT22;48610;52.144;8.624;2023-03-23T05:20:44;11.90;99.90
62555;DHT22;48610;52.144;8.624;2023-03-23T05:23:46;11.90;99.90
62555;DHT22;48610;52.144;8.624;2023-03-23T05:26:47;12.00;99.90
62555;DHT22;48610;52.144;8.624;2023-03-23T05:29:53;12.00;99.90
62555;DHT22;48610;52.144;8.624;2023-03-23T05:32:53;11.90;99.90
62555;DHT22;48610;52.144;8.624;2023-03-23T05:35:54;11.90;99.90
62555;DHT22;48610;52.144;8.624;2023-03-23T05:38:55;11.90;99.90
62555;DHT22;48610;52.144;8.624;2023-03-23T05:41:57;12.00;99.90
62555;DHT22;48610;52.144;8.624;2023-03-23T05:44:57;12.00;99.90
62555;DHT22;48610;52.144;8.624;2023-03-23T05:47:59;12.00;99.90
62555;DHT22;48610;52.144;8.624;2023-03-23T05:51:00;12.00;99.90
62555;DHT22;48610;52.144;8.624;2023-03-23T05:54:01;12.00;99.90
62555;DHT22;48610;52.144;8.624;2023-03-23T05:57:02;12.00;99.90
62555;DHT22;48610;52.144;8.624;2023-03-23T06:00:04;12.10;99.90
62555;DHT22;48610;52.144;8.624;2023-03-23T06:03:12;12.10;99.90
62555;DHT22;48610;52.144;8.624;2023-03-23T06:06:13;12.20;99.90
62555;DHT22;48610;52.144;8.624;2023-03-23T06:09:13;12.20;99.90
62555;DHT22;48610;52.144;8.624;2023-03-23T06:12:14;12.30;99.90
62555;DHT22;48610;52.144;8.624;2023-03-23T06:15:15;12.20;99.90
62555;DHT22;48610;52.144;8.624;2023-03-23T06:18:16;12.20;99.90
62555;DHT22;48610;52.144;8.624;2023-03-23T06:21:16;12.40;99.90
62555;DHT22;48610;52.144;8.624;2023-03-23T06:24:18;12.40;99.90
62555;DHT22;48610;52.144;8.624;2023-03-23T06:27:19;12.40;99.90
62555;DHT22;48610;52.144;8.624;2023-03-23T06:30:20;12.50;99.90
62555;DHT22;48610;52.144;8.624;2023-03-23T06:33:22;12.40;99.90
62555;DHT22;48610;52.144;8.624;2023-03-23T06:36:23;12.50;99.90
62555;DHT22;48610;52.144;8.624;2023-03-23T06:39:27;12.50;99.90
62555;DHT22;48610;52.144;8.624;2023-03-23T06:42:27;12.40;99.90
62555;DHT22;48610;52.144;8.624;2023-03-23T06:45:28;12.40;99.90
62555;DHT22;48610;52.144;8.624;2023-03-23T06:48:28;12.40;99.90
62555;DHT22;48610;52.144;8.624;2023-03-23T06:51:29;12.40;99.90
62555;DHT22;48610;52.144;8.624;2023-03-23T06:54:29;12.50;99.90
62555;DHT22;48610;52.144;8.624;2023-03-23T06:57:30;12.60;99.90
62555;DHT22;48610;52.144;8.624;2023-03-23T07:00:31;12.60;99.90
62555;DHT22;48610;52.144;8.624;2023-03-23T07:03:32;12.70;99.90
62555;DHT22;48610;52.144;8.624;2023-03-23T07:06:32;12.80;99.90
62555;DHT22;48610;52.144;8.624;2023-03-23T07:09:33;12.70;99.90
62555;DHT22;48610;52.144;8.624;2023-03-23T07:12:34;12.70;99.90
62555;DHT22;48610;52.144;8.624;2023-03-23T07:15:36;12.80;99.90
62555;DHT22;48610;52.144;8.624;2023-03-23T07:18:37;12.90;99.90
62555;DHT22;48610;52.144;8.624;2023-03-23T07:21:37;12.80;99.90
62555;DHT22;48610;52.144;8.624;2023-03-23T07:24:38;12.80;99.90
62555;DHT22;48610;52.144;8.624;2023-03-23T07:27:39;12.90;99.90
62555;DHT22;48610;52.144;8.624;2023-03-23T07:30:39;13.00;99.90
62555;DHT22;48610;52.144;8.624;2023-03-23T07:33:40;13.10;99.90
62555;DHT22;48610;52.144;8.624;2023-03-23T07:36:41;13.10;99.90
62555;DHT22;48610;52.144;8.624;2023-03-23T07:39:42;13.20;99.90
62555;DHT22;48610;52.144;8.624;2023-03-23T07:42:44;13.30;99.90
62555;DHT22;48610;52.144;8.624;2023-03-23T07:45:45;13.20;99.90
62555;DHT22;48610;52.144;8.624;2023-03-23T07:48:45;13.30;99.90
62555;DHT22;48610;52.144;8.624;2023-03-23T07:51:46;13.30;99.90
62555;DHT22;48610;52.144;8.624;2023-03-23T07:54:47;13.20;99.90
62555;DHT22;48610;52.144;8.624;2023-03-23T07:57:48;13.10;99.90
62555;DHT22;48610;52.144;8.624;2023-03-23T08:00:49;13.20;99.90
62555;DHT22;48610;52.144;8.624;2023-03-23T08:03:50;13.20;99.90
62555;DHT22;48610;52.144;8.624;2023-03-23T08:06:52;13.20;99.90
62555;DHT22;48610;52.144;8.624;2023-03-23T08:09:53;13.20;99.90
62555;DHT22;48610;52.144;8.624;2023-03-23T08:12:55;13.10;99.90
62555;DHT22;48610;52.144;8.624;2023-03-23T08:15:56;13.00;99.90
62555;DHT22;48610;52.144;8.624;2023-03-23T08:18:57;13.20;99.90
62555;DHT22;48610;52.144;8.624;2023-03-23T08:21:58;13.20;99.90
62555;DHT22;48610;52.144;8.624;2023-03-23T08:24:58;13.30;99.90
62555;DHT22;48610;52.144;8.624;2023-03-23T08:28:01;13.30;99.90
62555;DHT22;48610;52.144;8.624;2023-03-23T08:31:09;13.30;99.90
62555;DHT22;48610;52.144;8.624;2023-03-23T08:34:10;13.30;99.90
62555;DHT22;48610;52.144;8.624;2023-03-23T08:37:11;13.40;99.90
62555;DHT22;48610;52.144;8.624;2023-03-23T08:40:13;13.40;99.90
62555;DHT22;48610;52.144;8.624;2023-03-23T08:43:14;13.40;99.90
62555;DHT22;48610;52.144;8.624;2023-03-23T08:46:16;13.30;99.90
62555;DHT22;48610;52.144;8.624;2023-03-23T08:49:18;13.30;99.90
62555;DHT22;48610;52.144;8.624;2023-03-23T08:52:20;13.30;99.90
62555;DHT22;48610;52.144;8.624;2023-03-23T08:55:22;13.30;99.90
62555;DHT22;48610;52.144;8.624;2023-03-23T08:58:22;13.30;99.90
62555;DHT22;48610;52.144;8.624;2023-03-23T09:01:23;13.40;99.90
62555;DHT22;48610;52.144;8.624;2023-03-23T09:04:24;13.40;99.90
62555;DHT22;48610;52.144;8.624;2023-03-23T09:07:25;13.40;99.90
62555;DHT22;48610;52.144;8.624;2023-03-23T09:10:27;13.50;99.90
62555;DHT22;48610;52.144;8.624;2023-03-23T09:13:28;13.40;99.90
62555;DHT22;48610;52.144;8.624;2023-03-23T09:16:29;13.50;99.90
62555;DHT22;48610;52.144;8.624;2023-03-23T09:19:33;13.50;99.90
62555;DHT22;48610;52.144;8.624;2023-03-23T09:22:34;13.50;99.90
62555;DHT22;48610;52.144;8.624;2023-03-23T09:25:35;13.70;99.90
62555;DHT22;48610;52.144;8.624;2023-03-23T09:28:36;13.60;99.90
62555;DHT22;48610;52.144;8.624;2023-03-23T09:31:37;13.70;99.90
62555;DHT22;48610;52.144;8.624;2023-03-23T09:34:39;13.80;99.90
62555;DHT22;48610;52.144;8.624;2023-03-23T09:37:40;13.90;99.90
62555;DHT22;48610;52.144;8.624;2023-03-23T09:41:17;13.80;99.90
62555;DHT22;48610;52.144;8.624;2023-03-23T09:47:59;13.80;99.90
62555;DHT22;48610;52.144;8.624;2023-03-23T09:54:30;13.70;99.90
62555;DHT22;48610;52.144;8.624;2023-03-23T09:57:34;13.70;99.90
62555;DHT22;48610;52.144;8.624;2023-03-23T10:00:43;13.70;99.90
62555;DHT22;48610;52.144;8.624;2023-03-23T10:03:46;13.70;99.90
62555;DHT22;48610;52.144;8.624;2023-03-23T10:06:47;13.60;99.90
62555;DHT22;48610;52.144;8.624;2023-03-23T10:09:51;13.60;99.90
62555;DHT22;48610;52.144;8.624;2023-03-23T10:12:58;13.70;99.90
62555;DHT22;48610;52.144;8.624;2023-03-23T10:16:02;14.00;99.90
62555;DHT22;48610;52.144;8.624;2023-03-23T10:19:29;14.20;99.90
62555;DHT22;48610;52.144;8.624;2023-03-23T10:22:34;14.20;99.90
62555;DHT22;48610;52.144;8.624;2023-03-23T10:25:41;14.20;99.90
62555;DHT22;48610;52.144;8.624;2023-03-23T10:28:44;14.40;99.90
62555;DHT22;48610;52.144;8.624;2023-03-23T10:31:54;14.50;99.90
62555;DHT22;48610;52.144;8.624;2023-03-23T10:35:02;14.80;99.90
62555;DHT22;48610;52.144;8.624;2023-03-23T10:38:11;14.70;99.90
62555;DHT22;48610;52.144;8.624;2023-03-23T10:41:18;14.60;99.90
62555;DHT22;48610;52.144;8.624;2023-03-23T10:44:21;15.00;99.90
62555;DHT22;48610;52.144;8.624;2023-03-23T10:47:23;15.10;99.90
62555;DHT22;48610;52.144;8.624;2023-03-23T10:50:32;14.90;99.90
62555;DHT22;48610;52.144;8.624;2023-03-23T10:53:57;15.00;99.90
62555;DHT22;48610;52.144;8.624;2023-03-23T10:56:58;14.60;99.90
62555;DHT22;48610;52.144;8.624;2023-03-23T11:00:02;14.10;99.90
62555;DHT22;48610;52.144;8.624;2023-03-23T11:06:24;13.00;99.90
62555;DHT22;48610;52.144;8.624;2023-03-23T11:09:39;12.60;99.90
62555;DHT22;48610;52.144;8.624;2023-03-23T11:12:44;12.50;99.90
62555;DHT22;48610;52.144;8.624;2023-03-23T11:15:46;12.20;99.90
62555;DHT22;48610;52.144;8.624;2023-03-23T11:18:47;12.20;99.90
62555;DHT22;48610;52.144;8.624;2023-03-23T11:21:50;12.10;99.90
62555;DHT22;48610;52.144;8.624;2023-03-23T11:25:01;12.00;99.90
62555;DHT22;48610;52.144;8.624;2023-03-23T11:28:02;12.00;99.90
62555;DHT22;48610;52.144;8.624;2023-03-23T11:31:05;12.10;99.90
62555;DHT22;48610;52.144;8.624;2023-03-23T11:34:24;11.90;99.90
62555;DHT22;48610;52.144;8.624;2023-03-23T11:37:41;11.90;99.90
62555;DHT22;48610;52.144;8.624;2023-03-23T11:40:48;12.00;99.90
62555;DHT22;48610;52.144;8.624;2023-03-23T11:43:52;11.80;99.90
62555;DHT22;48610;52.144;8.624;2023-03-23T11:47:17;11.80;99.90
62555;DHT22;48610;52.144;8.624;2023-03-23T11:50:29;11.90;99.90
62555;DHT22;48610;52.144;8.624;2023-03-23T11:56:41;11.80;99.90
62555;DHT22;48610;52.144;8.624;2023-03-23T11:59:42;11.90;99.90
62555;DHT22;48610;52.144;8.624;2023-03-23T12:06:49;11.80;99.90
62555;DHT22;48610;52.144;8.624;2023-03-23T12:13:23;11.50;99.90
62555;DHT22;48610;52.144;8.624;2023-03-23T12:20:00;11.80;99.90
62555;DHT22;48610;52.144;8.624;2023-03-23T12:23:04;11.70;99.90
62555;DHT22;48610;52.144;8.624;2023-03-23T12:26:17;11.80;99.90
62555;DHT22;48610;52.144;8.624;2023-03-23T12:29:32;11.70;99.90
62555;DHT22;48610;52.144;8.624;2023-03-23T12:42:54;12.00;99.90
62555;DHT22;48610;52.144;8.624;2023-03-23T12:50:00;12.00;99.90
62555;DHT22;48610;52.144;8.624;2023-03-23T12:53:18;12.00;99.90
62555;DHT22;48610;52.144;8.624;2023-03-23T12:56:51;12.00;99.90
62555;DHT22;48610;52.144;8.624;2023-03-23T13:00:20;12.00;99.90
62555;DHT22;48610;52.144;8.624;2023-03-23T13:03:58;12.00;99.90
62555;DHT22;48610;52.144;8.624;2023-03-23T13:07:01;12.00;99.90
62555;DHT22;48610;52.144;8.624;2023-03-23T13:10:12;12.00;99.90
62555;DHT22;48610;52.144;8.624;2023-03-23T13:13:39;11.90;99.90
62555;DHT22;48610;52.144;8.624;2023-03-23T13:16:52;11.80;99.90
62555;DHT22;48610;52.144;8.624;2023-03-23T13:23:18;12.00;99.90
62555;DHT22;48610;52.144;8.624;2023-03-23T13:26:21;12.10;99.90
62555;DHT22;48610;52.144;8.624;2023-03-23T13:29:22;12.20;99.90
62555;DHT22;48610;52.144;8.624;2023-03-23T13:32:39;12.20;99.90
62555;DHT22;48610;52.144;8.624;2023-03-23T13:35:41;12.40;99.90
62555;DHT22;48610;52.144;8.624;2023-03-23T13:38:48;12.70;99.90
62555;DHT22;48610;52.144;8.624;2023-03-23T13:45:18;13.00;99.90
62555;DHT22;48610;52.144;8.624;2023-03-23T13:48:25;13.00;99.90
62555;DHT22;48610;52.144;8.624;2023-03-23T13:54:46;13.00;99.90
62555;DHT22;48610;52.144;8.624;2023-03-23T14:01:19;12.90;99.90
62555;DHT22;48610;52.144;8.624;2023-03-23T14:04:32;12.80;99.90
62555;DHT22;48610;52.144;8.624;2023-03-23T14:11:11;12.70;99.90
62555;DHT22;48610;52.144;8.624;2023-03-23T14:17:49;12.60;99.90
62555;DHT22;48610;52.144;8.624;2023-03-23T14:20:51;12.60;99.90
62555;DHT22;48610;52.144;8.624;2023-03-23T14:23:51;12.70;99.90
62555;DHT22;48610;52.144;8.624;2023-03-23T14:27:13;12.50;99.90
62555;DHT22;48610;52.144;8.624;2023-03-23T14:30:18;12.60;99.90
62555;DHT22;48610;52.144;8.624;2023-03-23T14:33:19;12.60;99.90
62555;DHT22;48610;52.144;8.624;2023-03-23T14:36:29;12.80;99.90
62555;DHT22;48610;52.144;8.624;2023-03-23T14:39:32;12.90;99.90
62555;DHT22;48610;52.144;8.624;2023-03-23T14:42:35;13.00;99.90
62555;DHT22;48610;52.144;8.624;2023-03-23T14:45:36;13.00;99.90
62555;DHT22;48610;52.144;8.624;2023-03-23T14:48:38;13.10;99.90
62555;DHT22;48610;52.144;8.624;2023-03-23T14:51:47;13.10;99.90
62555;DHT22;48610;52.144;8.624;2023-03-23T14:54:47;13.00;99.90
62555;DHT22;48610;52.144;8.624;2023-03-23T14:57:49;13.10;99.90
62555;DHT22;48610;52.144;8.624;2023-03-23T15:01:04;13.30;99.90
62555;DHT22;48610;52.144;8.624;2023-03-23T15:04:13;13.50;99.90
62555;DHT22;48610;52.144;8.624;2023-03-23T15:07:15;13.60;99.90
62555;DHT22;48610;52.144;8.624;2023-03-23T15:10:21;13.60;99.90
62555;DHT22;48610;52.144;8.624;2023-03-23T15:13:22;13.40;99.90
62555;DHT22;48610;52.144;8.624;2023-03-23T15:19:43;13.70;99.90
62555;DHT22;48610;52.144;8.624;2023-03-23T15:22:46;13.50;99.90
62555;DHT22;48610;52.144;8.624;2023-03-23T15:25:52;13.40;99.90
62555;DHT22;48610;52.144;8.624;2023-03-23T15:29:10;13.50;99.90
62555;DHT22;48610;52.144;8.624;2023-03-23T15:32:12;13.10;99.90
62555;DHT22;48610;52.144;8.624;2023-03-23T15:35:19;13.10;99.90
62555;DHT22;48610;52.144;8.624;2023-03-23T15:41:28;13.20;99.90
62555;DHT22;48610;52.144;8.624;2023-03-23T15:44:33;13.20;99.90
62555;DHT22;48610;52.144;8.624;2023-03-23T15:47:44;13.30;99.90
62555;DHT22;48610;52.144;8.624;2023-03-23T15:50:46;13.50;99.90
62555;DHT22;48610;52.144;8.624;2023-03-23T15:53:50;13.60;99.90
62555;DHT22;48610;52.144;8.624;2023-03-23T15:56:51;13.40;99.90
62555;DHT22;48610;52.144;8.624;2023-03-23T15:59:51;13.20;99.90
62555;DHT22;48610;52.144;8.624;2023-03-23T16:03:00;13.20;99.90
62555;DHT22;48610;52.144;8.624;2023-03-23T16:06:01;13.20;99.90
62555;DHT22;48610;52.144;8.624;2023-03-23T16:09:04;13.30;99.90
62555;DHT22;48610;52.144;8.624;2023-03-23T16:12:05;13.40;99.90
62555;DHT22;48610;52.144;8.624;2023-03-23T16:15:06;13.20;99.90
62555;DHT22;48610;52.144;8.624;2023-03-23T16:18:19;13.20;99.90
62555;DHT22;48610;52.144;8.624;2023-03-23T16:21:21;13.20;99.90
62555;DHT22;48610;52.144;8.624;2023-03-23T16:24:22;13.30;99.90
62555;DHT22;48610;52.144;8.624;2023-03-23T16:27:22;13.20;99.90
62555;DHT22;48610;52.144;8.624;2023-03-23T16:30:25;13.30;99.90
62555;DHT22;48610;52.144;8.624;2023-03-23T16:33:26;13.10;99.90
62555;DHT22;48610;52.144;8.624;2023-03-23T16:36:26;13.10;99.90
62555;DHT22;48610;52.144;8.624;2023-03-23T16:39:27;13.10;99.90
62555;DHT22;48610;52.144;8.624;2023-03-23T16:42:28;13.10;99.90
62555;DHT22;48610;52.144;8.624;2023-03-23T16:45:28;13.00;99.90
62555;DHT22;48610;52.144;8.624;2023-03-23T16:48:29;13.00;99.90
62555;DHT22;48610;52.144;8.624;2023-03-23T16:51:30;13.00;99.90
62555;DHT22;48610;52.144;8.624;2023-03-23T16:54:30;13.00;99.90
62555;DHT22;48610;52.144;8.624;2023-03-23T16:57:32;13.00;99.90
62555;DHT22;48610;52.144;8.624;2023-03-23T17:00:34;12.90;99.90
62555;DHT22;48610;52.144;8.624;2023-03-23T17:03:35;12.90;99.90
62555;DHT22;48610;52.144;8.624;2023-03-23T17:06:35;13.00;99.90
62555;DHT22;48610;52.144;8.624;2023-03-23T17:09:37;13.00;99.90
62555;DHT22;48610;52.144;8.624;2023-03-23T17:12:38;13.00;99.90
62555;DHT22;48610;52.144;8.624;2023-03-23T17:15:40;12.90;99.90
62555;DHT22;48610;52.144;8.624;2023-03-23T17:18:41;13.00;99.90
62555;DHT22;48610;52.144;8.624;2023-03-23T17:21:42;13.00;99.90
62555;DHT22;48610;52.144;8.624;2023-03-23T17:24:42;12.80;99.90
62555;DHT22;48610;52.144;8.624;2023-03-23T17:27:43;12.70;99.90
62555;DHT22;48610;52.144;8.624;2023-03-23T17:30:44;12.70;99.90
62555;DHT22;48610;52.144;8.624;2023-03-23T17:33:44;12.70;99.90
62555;DHT22;48610;52.144;8.624;2023-03-23T17:36:45;12.70;99.90
62555;DHT22;48610;52.144;8.624;2023-03-23T17:39:46;12.70;99.90
62555;DHT22;48610;52.144;8.624;2023-03-23T17:42:46;12.70;99.90
62555;DHT22;48610;52.144;8.624;2023-03-23T17:45:47;12.70;99.90
62555;DHT22;48610;52.144;8.624;2023-03-23T17:48:47;12.70;99.90
62555;DHT22;48610;52.144;8.624;2023-03-23T17:51:48;12.70;99.90
62555;DHT22;48610;52.144;8.624;2023-03-23T17:54:49;12.70;99.90
62555;DHT22;48610;52.144;8.624;2023-03-23T17:57:50;12.70;99.90
62555;DHT22;48610;52.144;8.624;2023-03-23T18:00:50;12.80;99.90
62555;DHT22;48610;52.144;8.624;2023-03-23T18:03:51;12.90;99.90
62555;DHT22;48610;52.144;8.624;2023-03-23T18:06:55;12.90;99.90
62555;DHT22;48610;52.144;8.624;2023-03-23T18:09:58;12.80;99.90
62555;DHT22;48610;52.144;8.624;2023-03-23T18:12:59;12.90;99.90
62555;DHT22;48610;52.144;8.624;2023-03-23T18:16:00;13.00;99.90
62555;DHT22;48610;52.144;8.624;2023-03-23T18:19:00;12.90;99.90
62555;DHT22;48610;52.144;8.624;2023-03-23T18:22:01;12.90;99.90
62555;DHT22;48610;52.144;8.624;2023-03-23T18:25:02;13.00;99.90
62555;DHT22;48610;52.144;8.624;2023-03-23T18:28:04;13.00;99.90
62555;DHT22;48610;52.144;8.624;2023-03-23T18:31:08;12.90;99.90
62555;DHT22;48610;52.144;8.624;2023-03-23T18:34:09;12.80;99.90
62555;DHT22;48610;52.144;8.624;2023-03-23T18:37:09;12.70;99.90
62555;DHT22;48610;52.144;8.624;2023-03-23T18:40:10;12.80;99.90
62555;DHT22;48610;52.144;8.624;2023-03-23T18:43:12;12.70;99.90
62555;DHT22;48610;52.144;8.624;2023-03-23T18:46:12;12.70;99.90
62555;DHT22;48610;52.144;8.624;2023-03-23T18:49:13;12.60;99.90
62555;DHT22;48610;52.144;8.624;2023-03-23T18:52:14;12.40;99.90
62555;DHT22;48610;52.144;8.624;2023-03-23T18:55:15;12.40;99.90
62555;DHT22;48610;52.144;8.624;2023-03-23T18:58:17;12.30;99.90
62555;DHT22;48610;52.144;8.624;2023-03-23T19:01:18;12.20;99.90
62555;DHT22;48610;52.144;8.624;2023-03-23T19:04:18;12.30;99.90
62555;DHT22;48610;52.144;8.624;2023-03-23T19:07:21;12.40;99.90
62555;DHT22;48610;52.144;8.624;2023-03-23T19:10:22;12.40;99.90
62555;DHT22;48610;52.144;8.624;2023-03-23T19:13:22;12.40;99.90
62555;DHT22;48610;52.144;8.624;2023-03-23T19:16:23;12.40;99.90
62555;DHT22;48610;52.144;8.624;2023-03-23T19:19:24;12.40;99.90
62555;DHT22;48610;52.144;8.624;2023-03-23T19:22:24;12.40;99.90
62555;DHT22;48610;52.144;8.624;2023-03-23T19:25:25;12.40;99.90
62555;DHT22;48610;52.144;8.624;2023-03-23T19:28:26;12.20;99.90
62555;DHT22;48610;52.144;8.624;2023-03-23T19:31:27;12.40;99.90
62555;DHT22;48610;52.144;8.624;2023-03-23T19:34:28;12.40;99.90
62555;DHT22;48610;52.144;8.624;2023-03-23T19:37:30;12.30;99.90
62555;DHT22;48610;52.144;8.624;2023-03-23T19:40:31;12.30;99.90
62555;DHT22;48610;52.144;8.624;2023-03-23T19:43:33;12.10;99.90
62555;DHT22;48610;52.144;8.624;2023-03-23T19:46:34;12.20;99.90
62555;DHT22;48610;52.144;8.624;2023-03-23T19:49:35;12.30;99.90
62555;DHT22;48610;52.144;8.624;2023-03-23T19:52:35;12.40;99.90
62555;DHT22;48610;52.144;8.624;2023-03-23T19:55:36;12.20;99.90
62555;DHT22;48610;52.144;8.624;2023-03-23T19:58:37;12.10;99.90
62555;DHT22;48610;52.144;8.624;2023-03-23T20:01:38;12.00;99.90
62555;DHT22;48610;52.144;8.624;2023-03-23T20:04:39;12.20;99.90
62555;DHT22;48610;52.144;8.624;2023-03-23T20:07:40;12.00;99.90
62555;DHT22;48610;52.144;8.624;2023-03-23T20:10:41;12.20;99.90
62555;DHT22;48610;52.144;8.624;2023-03-23T20:13:42;12.20;99.90
62555;DHT22;48610;52.144;8.624;2023-03-23T20:16:42;11.70;99.90
62555;DHT22;48610;52.144;8.624;2023-03-23T20:19:43;11.80;99.90
62555;DHT22;48610;52.144;8.624;2023-03-23T20:22:44;11.90;99.90
62555;DHT22;48610;52.144;8.624;2023-03-23T20:25:44;11.90;99.90
62555;DHT22;48610;52.144;8.624;2023-03-23T20:28:45;11.90;99.90
62555;DHT22;48610;52.144;8.624;2023-03-23T20:31:46;11.80;99.90
62555;DHT22;48610;52.144;8.624;2023-03-23T20:34:46;11.90;99.90
62555;DHT22;48610;52.144;8.624;2023-03-23T20:37:50;11.90;99.90
62555;DHT22;48610;52.144;8.624;2023-03-23T20:40:53;11.90;99.90
62555;DHT22;48610;52.144;8.624;2023-03-23T20:43:54;11.90;99.90